Chautauqua County-Jamestown Airport
KJHW : now visible

Airfield :











YOU CAN JOIN US ON...

 
LOGIN :

Register | Disclaimer

   EN    FR    IT 

 









Legend :    VFR   Marginal VFR   IFR   Intensive IFR   Very Intensive IFR
Visi :
Ceiling :
>= 8 km
>= 3000ft
5 to 8 km
1000 to 3000 ft
1500m to 5 km
500 to 1000 ft
800 to 1500m
200 to 500 ft
< 800m
< 200 ft
Symbols :   Thunderstorms  Fog  Heavy snow  Heavy precipitations  Wind > 20 kt






- Airport Elevation : 1723 ft


KJHW - Chautauqua County-Jamestown

CURRENT METAR :
  • 211603Z AUTO 22013G20KT 10SM BKN015 BKN019 18/16 A3013 RMK AO2

EXPIRED METARs :
  • 211456Z AUTO 22009G17KT 10SM OVC013 17/16 A3011 RMK AO2 RAE35 SLP203 P0000 60032 T01720156 56007
  • 211442Z AUTO 22010KT 10SM OVC011 17/16 A3010 RMK AO2 RAE35 P0000
  • 211429Z AUTO 22012KT 10SM -RA OVC009 17/16 A3011 RMK AO2 CIG 008V013 P0000
  • 211356Z AUTO 20012KT 10SM -RA OVC012 17/16 A3012 RMK AO2 RAE10B53 SLP204 P0009 T01670156
  • 211353Z AUTO 19012KT 10SM -RA FEW006 BKN012 OVC017 16/16 A3012 RMK AO2 RAE10B53 P0009
  • 211344Z AUTO 19011G17KT 10SM FEW004 SCT010 BKN015 16/16 A3012 RMK AO2 RAE10 P0009
  • 211336Z AUTO 20012KT 10SM SCT004 BKN013 BKN018 16/16 A3012 RMK AO2 RAE10 P0009

TAF KJHW
Valid from the 21 at 15:00 until the 22 at 12:00 UTC


211449Z 2115/2212 22014G20KT 6SM -SHRA OVC015
FM212000 26012KT P6SM OVC007
FM220200 24004KT P6SM BKN025
FM220600 VRB03KT 2SM BR BKN004
KZOB FIR / North America



MET'MAP, your aeronautical weather chart ! - Copyright ORBIFLY December 2007 - Disclaimer

ORBIFLY MET'MAP TEAM :

Programming & Development : Alexandra Zaïnal
Concept & original design : Baudouin d'Aumeries
Assistance for programming : Marc-Olivier Méhu
Technical & hardware support : Manuel Goepfert

Contact : metmap@orbifly.com




SOURCES & CREDITS :

   NOAA       Earth
Advisory